Sauk Rapids, MN (56379)

7:46 AM CST on February 07, 2016 (GMT -0600)
Summit Ave | | Change Station
CLOSE
Current Station
Personal Weather Station
Location: Sauk Rapids, MN
Elevation: 1093 ft
Nearby Weather Stations
Active Advisory: Winter Weather Advisory

Elev 1093 ft 45.60 °N, 94.16 °W | Updated 39 seconds ago

Overcast
Overcast
36.0 °F
Feels Like 34 °F
N
3.2
Wind Variable Wind from South

Today
High -- | Low -- °F
--% Chance of Precip.
Yesterday
High -- | Low -- °F
Precip. -- in
Pressure 29.58 in
Visibility 10.0 miles
Clouds Scattered Clouds 2800 ft
Overcast 3400 ft
Windchill 34 °F
Dew Point 29 °F
Humidity 76%
Rainfall 0.05 in
Snow Depth Not available.
7:30 AM 5:31 PM
Waning Crescent, 1% visible
SPECI KSTC 071312Z 28017G29KT 10SM SCT028 OVC034 02/M02 A2958 RMK AO2 PK WND 28030/1302 T00221022
Pressure 29.58 in
Visibility 10.0 miles
Clouds Scattered Clouds 2800 ft
Overcast 3400 ft
Windchill 34 °F
Dew Point 29 °F
Humidity 76%
Rainfall 0.05 in
Snow Depth Not available.
7:30 AM 5:31 PM
Waning Crescent, 1% visible
SPECI KSTC 071312Z 28017G29KT 10SM SCT028 OVC034 02/M02 A2958 RMK AO2 PK WND 28030/1302 T00221022

10-Day Weather Forecast

Almanac

Astronomy

Feb. 07, 2016 Rise Set
Actual Time
Civil Twilight
Nautical Twilight
Astronomical Twilight
Moon
Length of Visible Light
Length of Day
Tomorrow will be .
, % of the Moon is Illuminated

Today's Extremes

State Highs State Lows

Community

WunderPhotos

Upload Photos

1,891,190 photos uploaded!

WunderBlog® & News

Nearby

Air Quality

  Air Quality AQ Index Pollutant
Not available.

Snow Depth

Station Depth Elevation

Earthquake Activity

City Distance Mag. Time & Date
Minimum magnitude displayed is 2.5.

Coastal Water Temperatures

Place Temperature

Stations

Nearby Weather Stations

Station Location Temp. Windchill Dew Point Humidity Wind Precip. Elev Updated Type
                   

Watches & Warnings

Winter Weather Advisory
Issued: 2:54 AM CST Feb. 7, 2016 – National Weather Service

... Winter Weather Advisory now in effect from 4 PM this afternoon
to noon CST Monday...

* expect snow to develop around 4 PM this afternoon and then
diminish around noon Monday.

* The heaviest snowfall rates will occur between noon and 6 PM
Sunday.

* Snow accumulations of 1 to 2 inches are expected.

* Winds gusting as high as 45 mph will cause areas of blowing and
drifting snow.

* Plan on slippery Road conditions.

Precautionary/preparedness actions...

A Winter Weather Advisory for snow means periods of snow and
blowing snow will cause travel difficulties. Be prepared for snow
covered roads and limited visibilities... and use caution while
driving. The latest Road conditions for the state you are calling
from can be obtained by calling 5 1 1.